createdAt,value
2022-08-10T00:00:51.594Z,7.38
2022-08-10T00:05:54.937Z,6.13
2022-08-10T00:10:58.084Z,8.25
2022-08-10T00:16:00.260Z,5.53
2022-08-10T00:21:02.417Z,7.07
2022-08-10T00:26:05.752Z,6.35
2022-08-10T00:31:07.564Z,5.85
2022-08-10T00:36:09.538Z,6.95
2022-08-10T00:41:11.336Z,5.80
2022-08-10T00:46:13.117Z,5.93
2022-08-10T00:51:15.081Z,7.95
2022-08-10T00:56:35.088Z,6.35
2022-08-10T01:02:08.652Z,5.45
2022-08-10T01:07:19.873Z,6.00
2022-08-10T01:12:46.676Z,6.57
2022-08-10T01:17:54.206Z,7.35
2022-08-10T01:23:20.827Z,6.72
2022-08-10T01:28:34.386Z,8.57
2022-08-10T01:33:58.464Z,7.80
2022-08-10T01:39:03.900Z,6.57
2022-08-10T01:44:29.238Z,6.85
2022-08-10T01:49:32.168Z,8.55
2022-08-10T01:54:34.596Z,7.55
2022-08-10T01:59:39.898Z,8.43
2022-08-10T02:04:46.072Z,8.63
2022-08-10T02:09:52.902Z,7.47
2022-08-10T02:14:58.733Z,7.50
2022-08-10T02:20:05.410Z,8.38
2022-08-10T02:25:08.961Z,8.85
2022-08-10T02:30:12.219Z,9.20
2022-08-10T02:35:22.510Z,9.25
2022-08-10T02:45:01.646Z,7.28
2022-08-10T02:45:53.241Z,9.40
2022-08-10T02:50:58.695Z,9.43
2022-08-10T02:56:10.728Z,13.40
2022-08-10T03:01:17.632Z,9.15
2022-08-10T03:06:25.260Z,10.50
2022-08-10T03:12:35.281Z,8.05
2022-08-10T03:16:55.463Z,9.63
2022-08-10T03:21:58.639Z,8.55
2022-08-10T03:27:01.398Z,10.13
2022-08-10T03:32:05.637Z,8.93
2022-08-10T03:37:07.642Z,11.02
2022-08-10T03:42:12.883Z,12.20
2022-08-10T03:47:19.984Z,9.63
2022-08-10T03:52:21.917Z,10.45
2022-08-10T03:57:24.543Z,9.27
2022-08-10T04:02:47.140Z,9.32
2022-08-10T04:07:49.038Z,10.20
2022-08-10T04:12:50.898Z,11.00
2022-08-10T04:17:57.031Z,10.45
2022-08-10T04:23:21.993Z,8.32
2022-08-10T04:28:24.054Z,9.15
2022-08-10T04:33:28.991Z,8.27
2022-08-10T04:38:33.697Z,9.20
2022-08-10T04:43:36.467Z,8.90
2022-08-10T04:48:42.056Z,10.77
2022-08-10T04:59:10.641Z,14.90
2022-08-10T05:04:36.542Z,9.38
2022-08-10T05:09:34.143Z,11.02
2022-08-10T05:14:56.181Z,10.82
2022-08-10T05:20:03.305Z,11.55
2022-08-10T05:25:13.815Z,12.13
2022-08-10T05:30:21.943Z,10.25
2022-08-10T05:35:24.053Z,12.35
2022-08-10T05:40:27.555Z,11.50
2022-08-10T05:45:29.430Z,10.82
2022-08-10T05:50:31.527Z,11.80
2022-08-10T05:55:33.580Z,9.88
2022-08-10T06:00:41.898Z,9.68
2022-08-10T06:05:48.169Z,11.57
2022-08-10T06:12:27.686Z,13.32
2022-08-10T06:16:17.025Z,13.70
2022-08-10T06:21:20.053Z,11.20
2022-08-10T06:26:21.954Z,9.63
2022-08-10T06:31:26.111Z,11.48
2022-08-10T06:36:34.085Z,12.93
2022-08-10T06:41:57.870Z,9.75
2022-08-10T06:47:07.627Z,10.32
2022-08-10T06:52:18.236Z,8.98
2022-08-10T06:57:24.746Z,11.77
2022-08-10T07:02:34.238Z,8.52
2022-08-10T07:07:39.149Z,9.25
2022-08-10T07:12:41.152Z,9.18
2022-08-10T07:17:45.888Z,11.40
2022-08-10T07:23:26.961Z,9.07
2022-08-10T07:28:13.477Z,9.52
2022-08-10T07:33:18.242Z,6.80
2022-08-10T07:38:25.377Z,11.23
2022-08-10T07:43:32.037Z,10.68
2022-08-10T07:48:40.646Z,12.00
2022-08-10T07:53:47.703Z,10.67
2022-08-10T07:58:53.017Z,7.65
2022-08-10T08:04:05.930Z,6.80
2022-08-10T08:09:12.854Z,12.10
2022-08-10T08:14:15.885Z,7.93
2022-08-10T08:19:28.540Z,7.80
2022-08-10T08:24:42.363Z,8.60
2022-08-10T08:29:47.021Z,6.82
2022-08-10T08:34:54.413Z,5.88
2022-08-10T08:39:56.775Z,5.93
2022-08-10T08:45:20.218Z,6.25
2022-08-10T08:51:13.134Z,5.28
2022-08-10T08:56:49.562Z,6.55
2022-08-10T09:02:18.099Z,4.78
2022-08-10T09:08:00.040Z,6.70
2022-08-10T09:13:05.262Z,5.57
2022-08-10T09:18:23.938Z,4.85
2022-08-10T09:24:01.902Z,6.57
2022-08-10T09:29:13.476Z,4.38
2022-08-10T09:36:26.997Z,4.70
2022-08-10T09:40:12.267Z,4.43
2022-08-10T09:45:38.890Z,4.35
2022-08-10T09:51:42.137Z,5.00
2022-08-10T09:56:49.405Z,4.53
2022-08-10T10:02:03.625Z,3.22
2022-08-10T10:07:08.662Z,3.13
2022-08-10T10:12:26.885Z,3.60
2022-08-10T10:17:49.829Z,3.72
2022-08-10T10:23:35.098Z,3.08
2022-08-10T10:29:25.164Z,3.92
2022-08-10T10:34:38.091Z,4.88
2022-08-10T10:39:43.982Z,4.93
2022-08-10T10:45:18.166Z,6.03
2022-08-10T10:50:27.673Z,2.80
2022-08-10T10:56:13.268Z,3.28
2022-08-10T11:01:23.032Z,4.40
2022-08-10T11:07:01.082Z,3.25
2022-08-10T11:12:26.180Z,3.65
2022-08-10T11:17:54.978Z,6.20
2022-08-10T11:23:34.421Z,8.75
2022-08-10T11:28:43.272Z,3.77
2022-08-10T11:34:46.607Z,3.47
2022-08-10T11:39:48.576Z,4.28
2022-08-10T11:45:00.223Z,2.72
2022-08-10T11:50:42.535Z,3.60
2022-08-10T11:55:53.243Z,4.22
2022-08-10T12:00:57.246Z,4.53
2022-08-10T12:06:00.867Z,4.18
2022-08-10T12:11:03.027Z,3.15
2022-08-10T12:16:11.902Z,4.82
2022-08-10T12:21:40.725Z,2.67
2022-08-10T12:26:57.157Z,4.20
2022-08-10T12:32:24.870Z,6.65
2022-08-10T12:38:00.054Z,5.07
2022-08-10T12:44:07.129Z,3.92
2022-08-10T12:49:02.671Z,5.45
2022-08-10T12:54:31.811Z,4.55
2022-08-10T12:59:43.368Z,3.40
2022-08-10T13:04:49.160Z,3.92
2022-08-10T13:09:55.691Z,4.88
2022-08-10T13:15:45.962Z,4.10
2022-08-10T13:20:35.336Z,4.03
2022-08-10T13:25:40.490Z,4.32
2022-08-10T13:30:45.539Z,8.70
2022-08-10T13:35:58.078Z,3.78
2022-08-10T13:41:04.086Z,4.28
2022-08-10T13:46:07.286Z,4.75
2022-08-10T13:51:56.933Z,3.70
2022-08-10T13:56:52.078Z,4.00
2022-08-10T14:01:54.413Z,3.95
2022-08-10T14:07:00.240Z,3.60
2022-08-10T14:12:02.316Z,4.88
2022-08-10T14:17:06.952Z,4.88
2022-08-10T14:22:08.855Z,5.05
2022-08-10T14:27:16.365Z,4.45
2022-08-10T14:32:23.469Z,4.13
2022-08-10T14:37:37.780Z,6.00
2022-08-10T14:42:48.928Z,2.85
2022-08-10T14:47:59.376Z,3.92
2022-08-10T14:53:10.197Z,5.43
2022-08-10T14:58:20.552Z,3.95
2022-08-10T15:04:02.251Z,4.78
2022-08-10T15:08:49.967Z,5.35
2022-08-10T15:14:14.917Z,3.97
2022-08-10T15:20:00.941Z,6.47
2022-08-10T15:25:00.287Z,4.95
2022-08-10T15:30:03.803Z,3.70
2022-08-10T15:35:26.113Z,4.55
2022-08-10T15:40:35.965Z,4.55
2022-08-10T15:45:56.587Z,4.93
2022-08-10T15:51:05.748Z,4.60
2022-08-10T15:56:17.496Z,2.88
2022-08-10T16:02:13.726Z,4.40
2022-08-10T16:07:15.431Z,5.68
2022-08-10T16:12:34.961Z,3.72
2022-08-10T16:17:54.312Z,7.93
2022-08-10T16:23:02.119Z,3.70
2022-08-10T16:28:07.388Z,4.85
2022-08-10T16:33:11.882Z,7.45
2022-08-10T16:38:17.070Z,3.92
2022-08-10T16:43:23.548Z,4.60
2022-08-10T16:48:49.475Z,5.72
2022-08-10T16:53:53.729Z,5.80
2022-08-10T16:58:57.419Z,4.10
2022-08-10T17:04:09.910Z,4.90
2022-08-10T17:09:20.573Z,4.85
2022-08-10T17:14:25.058Z,4.82
2022-08-10T17:19:30.131Z,5.80
2022-08-10T17:24:37.381Z,6.93
2022-08-10T17:29:57.140Z,4.15
2022-08-10T17:35:09.139Z,4.75
2022-08-10T17:40:15.520Z,4.90
2022-08-10T17:45:48.719Z,8.90
2022-08-10T17:50:49.760Z,4.90
2022-08-10T17:55:57.695Z,4.72
2022-08-10T18:01:41.569Z,5.28
2022-08-10T18:06:25.068Z,7.97
2022-08-10T18:11:32.143Z,7.35
2022-08-10T18:16:35.418Z,7.15
2022-08-10T18:21:47.104Z,6.88
2022-08-10T18:26:52.373Z,6.07
2022-08-10T18:31:58.987Z,5.90
2022-08-10T18:37:04.410Z,5.18
2022-08-10T18:42:21.326Z,6.78
2022-08-10T18:47:40.979Z,5.82
2022-08-10T18:53:04.632Z,5.85
2022-08-10T18:58:18.200Z,6.45
2022-08-10T19:03:56.547Z,6.43
2022-08-10T19:09:08.629Z,4.82
2022-08-10T19:14:37.442Z,5.57
2022-08-10T19:20:08.670Z,4.07
2022-08-10T19:26:17.106Z,6.90
2022-08-10T19:30:54.355Z,4.80
2022-08-10T19:36:06.214Z,5.03
2022-08-10T19:41:15.007Z,4.82
2022-08-10T19:46:43.677Z,5.77
2022-08-10T19:52:10.921Z,6.68
2022-08-10T19:57:28.973Z,6.53
2022-08-10T20:02:41.961Z,5.85
2022-08-10T20:07:53.932Z,6.28
2022-08-10T20:13:20.573Z,7.10
2022-08-10T20:18:26.737Z,5.75
2022-08-10T20:23:36.686Z,4.93
2022-08-10T20:28:42.948Z,4.68
2022-08-10T20:34:07.087Z,7.18
2022-08-10T20:39:33.732Z,6.30
2022-08-10T20:45:08.458Z,8.18
2022-08-10T20:50:34.781Z,5.13
2022-08-10T20:55:51.951Z,6.65
2022-08-10T21:01:25.640Z,6.18
2022-08-10T21:07:06.027Z,5.90
2022-08-10T21:12:30.414Z,6.03
2022-08-10T21:18:13.174Z,5.40
2022-08-10T21:23:16.790Z,12.85
2022-08-10T21:28:55.463Z,5.75
2022-08-10T21:34:05.878Z,4.30
2022-08-10T21:39:42.572Z,5.75
2022-08-10T21:45:58.350Z,3.72
2022-08-10T21:51:24.375Z,5.00
2022-08-10T21:57:02.828Z,5.22
2022-08-10T22:02:28.052Z,5.93
2022-08-10T22:07:55.037Z,5.75
2022-08-10T22:13:24.010Z,7.43
2022-08-10T22:19:01.899Z,3.85
2022-08-10T22:24:42.573Z,11.60
2022-08-10T22:30:12.049Z,6.13
2022-08-10T22:35:51.307Z,6.25
2022-08-10T22:41:19.155Z,5.22
2022-08-10T22:46:46.215Z,5.80
2022-08-10T22:52:08.188Z,4.63
2022-08-10T22:57:34.416Z,5.07
2022-08-10T23:02:38.660Z,5.28
2022-08-10T23:07:51.365Z,5.60
2022-08-10T23:13:14.389Z,3.80
2022-08-10T23:18:57.729Z,3.80
2022-08-10T23:24:00.157Z,5.40
2022-08-10T23:29:12.157Z,3.20
2022-08-10T23:34:19.569Z,5.45
2022-08-10T23:39:29.873Z,4.15
2022-08-10T23:44:40.795Z,4.10
2022-08-10T23:49:44.273Z,6.85
2022-08-10T23:54:49.852Z,4.40
2022-08-10T23:59:57.985Z,4.70
